Time;durP1;ratioP1;P1;durP2;ratioP2;P2;SDS_P1;SDS_P2;PMS_P1;PMS_P2;Temp;Humidity;BMP_temperature;BMP_pressure;BME280_temperature;BME280_humidity;BME280_pressure;Samples;Min_cycle;Max_cycle;Signal;HPM_P1;HPM_P2
2022/05/31 00:00:22;;;;;;;5.53;2.50;;;10.90;95.50;;;;;;5048783;28;20059;-72
2022/05/31 00:02:48;;;;;;;6.40;3.08;;;11.00;95.30;;;;;;5049674;28;20080;-72
2022/05/31 00:05:14;;;;;;;7.43;2.85;;;11.10;95.10;;;;;;5048343;28;20041;-73
2022/05/31 00:07:41;;;;;;;5.35;2.67;;;11.10;95.00;;;;;;5049512;28;20036;-72
2022/05/31 00:10:09;;;;;;;7.05;2.95;;;11.20;94.80;;;;;;5048350;28;20479;-75
2022/05/31 00:12:35;;;;;;;6.07;2.72;;;11.20;94.60;;;;;;5048772;28;20119;-71
2022/05/31 00:15:02;;;;;;;6.78;2.70;;;11.30;94.60;;;;;;5051265;28;20051;-71
2022/05/31 00:17:27;;;;;;;4.97;2.10;;;11.30;94.50;;;;;;5031485;28;20044;-71
2022/05/31 00:19:53;;;;;;;5.47;2.30;;;11.30;94.30;;;;;;5048963;28;20033;-71
2022/05/31 00:22:24;;;;;;;4.70;2.42;;;11.30;94.30;;;;;;5048919;28;20065;-72
2022/05/31 00:24:50;;;;;;;6.38;2.30;;;11.30;94.30;;;;;;5049474;28;20035;-76
2022/05/31 00:27:19;;;;;;;5.93;2.55;;;11.30;94.30;;;;;;5049349;28;20029;-70
2022/05/31 00:29:47;;;;;;;7.32;2.50;;;11.30;94.30;;;;;;5049253;28;20045;-73
2022/05/31 00:32:15;;;;;;;7.00;2.50;;;11.30;94.30;;;;;;5049282;28;20040;-74
2022/05/31 00:34:46;;;;;;;4.28;2.50;;;11.30;94.20;;;;;;5049514;28;20040;-72
2022/05/31 00:37:12;;;;;;;6.63;2.60;;;11.30;94.00;;;;;;5049337;28;20029;-72
2022/05/31 00:39:39;;;;;;;7.03;2.70;;;11.40;94.10;;;;;;5049867;28;20076;-69
2022/05/31 00:42:09;;;;;;;5.13;2.13;;;11.40;94.00;;;;;;5049764;28;20029;-74
2022/05/31 00:44:36;;;;;;;4.43;2.20;;;11.30;94.10;;;;;;5055128;28;20029;-70
2022/05/31 00:47:07;;;;;;;4.00;2.17;;;11.30;94.20;;;;;;5051490;28;20394;-72
2022/05/31 00:49:57;;;;;;;4.28;1.95;;;11.30;94.20;;;;;;5069797;28;20024;-72
2022/05/31 00:53:05;;;;;;;5.13;2.17;;;11.40;94.40;;;;;;5068947;28;20033;-74
2022/05/31 00:55:46;;;;;;;3.95;2.00;;;11.30;94.30;;;;;;5069465;28;20036;-71
2022/05/31 00:58:17;;;;;;;3.78;1.90;;;11.30;94.20;;;;;;5051328;28;20036;-73
2022/05/31 01:00:43;;;;;;;4.55;2.65;;;11.30;94.20;;;;;;5046365;28;20082;-74
2022/05/31 01:03:16;;;;;;;7.07;2.33;;;11.30;94.20;;;;;;5028647;28;20040;-70
2022/05/31 01:05:41;;;;;;;8.65;2.70;;;11.30;94.20;;;;;;5027387;28;20033;-73
2022/05/31 01:08:07;;;;;;;6.53;2.72;;;11.30;94.20;;;;;;5029255;28;20040;-71
2022/05/31 01:10:33;;;;;;;6.60;3.05;;;11.30;94.30;;;;;;5028975;28;20030;-71
2022/05/31 01:13:00;;;;;;;5.10;2.45;;;11.30;94.10;;;;;;5029741;28;20031;-71
2022/05/31 01:15:26;;;;;;;5.88;2.72;;;11.30;94.20;;;;;;5028084;28;20034;-72
2022/05/31 01:17:52;;;;;;;5.50;2.70;;;11.30;94.10;;;;;;5027614;28;20095;-71
2022/05/31 01:20:21;;;;;;;5.25;3.28;;;11.30;94.20;;;;;;5029222;28;20379;-74
2022/05/31 01:23:00;;;;;;;6.45;3.47;;;11.30;94.20;;;;;;5029419;28;20033;-76
2022/05/31 01:25:47;;;;;;;5.65;3.28;;;11.20;94.30;;;;;;5029931;28;20033;-72
2022/05/31 01:28:18;;;;;;;5.82;2.95;;;11.20;94.40;;;;;;5029263;28;20037;-72
2022/05/31 01:30:55;;;;;;;5.22;3.28;;;11.20;94.40;;;;;;5029192;28;20033;-70
2022/05/31 01:33:30;;;;;;;6.28;3.17;;;11.20;94.40;;;;;;5027825;28;20453;-72
2022/05/31 01:36:04;;;;;;;6.68;2.95;;;11.10;94.40;;;;;;5045646;28;20705;-71
2022/05/31 01:38:40;;;;;;;5.35;3.30;;;11.00;94.60;;;;;;5052170;28;20707;-72
2022/05/31 01:41:16;;;;;;;7.20;3.50;;;11.00;94.60;;;;;;5052418;28;20058;-71
2022/05/31 01:43:45;;;;;;;5.57;2.90;;;11.00;94.70;;;;;;5052199;28;20061;-74
2022/05/31 01:46:17;;;;;;;6.88;3.58;;;11.00;94.80;;;;;;5052573;28;20068;-72
2022/05/31 01:48:43;;;;;;;6.90;3.47;;;10.90;95.10;;;;;;5051628;28;20033;-70
2022/05/31 01:51:11;;;;;;;7.03;3.53;;;10.90;95.10;;;;;;5034463;28;20040;-70
2022/05/31 01:53:38;;;;;;;6.35;3.47;;;10.80;95.30;;;;;;5052354;28;20044;-70
2022/05/31 01:56:06;;;;;;;7.40;3.72;;;10.70;95.60;;;;;;5052596;28;20029;-73
2022/05/31 01:58:35;;;;;;;6.32;3.42;;;10.60;95.70;;;;;;5052373;28;20025;-75
2022/05/31 02:01:02;;;;;;;6.82;3.47;;;10.60;95.90;;;;;;5034482;28;20033;-71
2022/05/31 02:03:29;;;;;;;7.13;3.75;;;10.50;95.90;;;;;;5034069;28;20043;-74
2022/05/31 02:05:55;;;;;;;6.22;2.95;;;10.40;96.20;;;;;;5052016;28;20037;-73
2022/05/31 02:08:23;;;;;;;8.88;3.80;;;10.30;96.50;;;;;;5034273;28;20036;-71
2022/05/31 02:10:49;;;;;;;8.45;3.97;;;10.20;96.70;;;;;;5034711;28;20478;-71
2022/05/31 02:13:17;;;;;;;7.63;4.28;;;10.20;96.90;;;;;;5070878;28;20394;-74
2022/05/31 02:15:42;;;;;;;7.57;4.03;;;10.10;96.80;;;;;;5053468;28;20071;-75
2022/05/31 02:18:09;;;;;;;5.95;3.63;;;10.10;97.10;;;;;;5071428;28;20494;-73
2022/05/31 02:20:35;;;;;;;8.38;3.90;;;10.20;97.20;;;;;;5071506;28;20083;-72
2022/05/31 02:23:01;;;;;;;7.90;4.00;;;10.20;97.30;;;;;;5053369;28;20410;-70
2022/05/31 02:25:26;;;;;;;8.18;4.63;;;10.20;97.10;;;;;;5053520;28;20025;-70
2022/05/31 02:27:52;;;;;;;6.25;4.60;;;10.20;97.10;;;;;;5071376;28;20032;-70
2022/05/31 02:30:18;;;;;;;9.02;5.65;;;10.20;97.10;;;;;;5071034;28;20436;-73
2022/05/31 02:32:44;;;;;;;7.45;5.25;;;10.20;97.20;;;;;;5070948;28;20029;-77
2022/05/31 02:35:10;;;;;;;7.60;5.60;;;10.10;97.20;;;;;;5053087;28;20044;-71
2022/05/31 02:37:37;;;;;;;8.10;5.70;;;10.10;97.30;;;;;;5053295;28;20039;-70
2022/05/31 02:40:05;;;;;;;8.57;6.00;;;10.10;97.40;;;;;;5052755;28;20056;-74
2022/05/31 02:42:31;;;;;;;9.38;6.70;;;10.10;97.50;;;;;;5071345;28;20038;-74
2022/05/31 02:44:57;;;;;;;10.57;5.90;;;10.10;97.50;;;;;;5070750;28;20032;-74
2022/05/31 02:47:23;;;;;;;11.57;6.60;;;10.10;97.40;;;;;;5052183;28;20039;-72
2022/05/31 02:49:49;;;;;;;8.40;6.00;;;10.10;97.40;;;;;;5052519;28;20523;-78
2022/05/31 02:52:15;;;;;;;8.52;6.10;;;10.00;97.30;;;;;;5032792;28;20029;-72
2022/05/31 02:54:41;;;;;;;8.15;5.90;;;10.00;97.60;;;;;;5028813;28;20407;-73
2022/05/31 02:57:08;;;;;;;8.60;5.88;;;10.00;97.70;;;;;;5029706;28;20042;-72
2022/05/31 02:59:33;;;;;;;10.05;5.78;;;10.00;97.60;;;;;;5029456;28;20144;-73
2022/05/31 03:01:59;;;;;;;8.48;5.50;;;10.10;97.60;;;;;;5023073;28;20149;-76
2022/05/31 03:04:25;;;;;;;9.13;5.50;;;10.10;97.70;;;;;;5030300;28;20052;-71
2022/05/31 03:06:51;;;;;;;9.88;5.32;;;10.10;97.50;;;;;;5030475;28;20034;-71
2022/05/31 03:09:16;;;;;;;10.27;5.65;;;10.20;97.50;;;;;;5031136;28;20109;-74
2022/05/31 03:11:59;;;;;;;8.15;5.53;;;10.20;97.40;;;;;;5031012;28;20029;-72
2022/05/31 03:14:40;;;;;;;11.07;6.30;;;10.20;97.30;;;;;;5030633;28;20570;-72
2022/05/31 03:17:12;;;;;;;8.27;5.85;;;10.20;97.30;;;;;;5030712;28;20418;-72
2022/05/31 03:19:51;;;;;;;8.60;6.22;;;10.20;97.30;;;;;;5031139;28;20033;-71
2022/05/31 03:22:22;;;;;;;10.95;6.93;;;10.10;97.20;;;;;;5030337;28;20741;-74
2022/05/31 03:24:54;;;;;;;9.38;6.18;;;10.10;97.50;;;;;;5012481;28;20384;-73
2022/05/31 03:27:19;;;;;;;7.68;5.47;;;10.00;97.60;;;;;;5026913;28;20025;-70
2022/05/31 03:29:47;;;;;;;8.18;6.00;;;10.00;97.70;;;;;;5050421;28;20086;-71
2022/05/31 03:32:15;;;;;;;9.13;5.68;;;10.00;97.60;;;;;;5049206;28;20471;-70
2022/05/31 03:34:41;;;;;;;7.20;5.28;;;10.10;97.60;;;;;;5050872;28;20045;-71
2022/05/31 03:37:07;;;;;;;9.02;5.80;;;10.10;97.80;;;;;;5050614;28;20196;-70
2022/05/31 03:39:33;;;;;;;9.52;5.78;;;10.00;97.60;;;;;;5049080;28;20148;-74
2022/05/31 03:41:58;;;;;;;8.13;6.28;;;10.00;97.50;;;;;;5050662;28;20032;-71
2022/05/31 03:44:24;;;;;;;10.57;6.05;;;10.00;97.80;;;;;;5050630;28;20068;-72
2022/05/31 03:46:50;;;;;;;9.15;6.18;;;10.00;97.70;;;;;;5049819;28;20033;-75
2022/05/31 03:49:15;;;;;;;8.77;5.50;;;10.00;97.60;;;;;;5050751;28;20114;-71
2022/05/31 03:51:42;;;;;;;8.52;5.90;;;9.90;97.80;;;;;;5050509;28;20061;-71
2022/05/31 03:54:07;;;;;;;9.00;5.80;;;10.00;97.90;;;;;;5049889;28;20472;-72
2022/05/31 03:56:36;;;;;;;9.32;6.10;;;10.00;98.00;;;;;;5049944;28;20041;-71
2022/05/31 03:59:01;;;;;;;9.27;6.05;;;9.90;98.00;;;;;;5048386;28;20028;-72
2022/05/31 04:01:28;;;;;;;9.20;6.22;;;10.00;98.10;;;;;;5049386;28;20041;-73
2022/05/31 04:03:54;;;;;;;8.80;5.07;;;10.00;97.90;;;;;;5049078;28;20044;-73
2022/05/31 04:06:20;;;;;;;8.50;5.45;;;10.00;98.00;;;;;;5048803;28;20033;-73
2022/05/31 04:08:46;;;;;;;7.85;5.72;;;10.00;97.90;;;;;;5033141;28;20028;-76
2022/05/31 04:11:12;;;;;;;7.10;5.43;;;10.10;97.80;;;;;;5054679;28;20670;-71
2022/05/31 04:13:38;;;;;;;7.45;5.20;;;10.10;97.80;;;;;;5070000;28;20491;-72
2022/05/31 04:16:11;;;;;;;8.90;5.78;;;10.10;97.50;;;;;;5052551;28;20031;-72
2022/05/31 04:18:38;;;;;;;7.95;5.70;;;10.10;97.60;;;;;;5052687;28;20044;-72
2022/05/31 04:21:06;;;;;;;8.30;5.32;;;10.10;97.80;;;;;;5069792;28;20569;-76
2022/05/31 04:26:16;;;;;;;7.60;4.93;;;10.00;97.60;;;;;;5071013;28;20032;-71
2022/05/31 04:28:42;;;;;;;8.50;5.15;;;10.10;97.60;;;;;;5070693;28;20036;-74
2022/05/31 04:31:08;;;;;;;10.57;5.60;;;10.10;97.60;;;;;;5053464;28;20572;-73
2022/05/31 04:33:34;;;;;;;7.13;5.40;;;10.10;97.60;;;;;;5069664;28;20099;-72
2022/05/31 04:36:11;;;;;;;8.10;5.10;;;10.10;97.90;;;;;;5069097;28;20093;-75
2022/05/31 04:38:37;;;;;;;8.93;5.22;;;10.10;97.80;;;;;;5051666;28;20024;-73
2022/05/31 04:41:03;;;;;;;8.73;5.57;;;10.10;97.90;;;;;;5050856;28;20051;-73
2022/05/31 04:43:29;;;;;;;6.70;4.80;;;10.10;98.00;;;;;;5069376;28;20119;-71
2022/05/31 04:45:55;;;;;;;9.50;5.05;;;10.10;97.70;;;;;;5052393;28;20123;-71
2022/05/31 04:48:20;;;;;;;9.02;5.65;;;10.10;97.50;;;;;;5052670;28;20111;-73
2022/05/31 04:50:46;;;;;;;7.18;4.70;;;10.20;97.70;;;;;;5070016;28;20584;-72
2022/05/31 04:53:12;;;;;;;8.88;5.40;;;10.10;97.60;;;;;;5070688;28;20036;-71
2022/05/31 04:55:37;;;;;;;6.90;4.68;;;10.20;97.50;;;;;;5071424;28;20028;-71
2022/05/31 04:58:03;;;;;;;6.53;4.45;;;10.20;97.60;;;;;;5052084;28;20569;-73
2022/05/31 05:00:30;;;;;;;8.13;4.28;;;10.20;97.70;;;;;;5052455;28;20097;-71
2022/05/31 05:02:56;;;;;;;9.90;4.50;;;10.20;97.50;;;;;;5072493;28;20028;-72
2022/05/31 05:05:22;;;;;;;7.18;4.10;;;10.30;97.50;;;;;;5052741;28;20071;-71
2022/05/31 05:07:47;;;;;;;7.13;4.30;;;10.30;97.40;;;;;;5069647;28;20040;-74
2022/05/31 05:10:13;;;;;;;8.60;4.65;;;10.30;97.50;;;;;;5068555;28;20028;-72
2022/05/31 05:12:39;;;;;;;7.70;3.80;;;10.40;97.40;;;;;;5068643;28;20030;-74
2022/05/31 05:15:05;;;;;;;11.48;4.35;;;10.40;97.30;;;;;;5068963;28;20040;-74
2022/05/31 05:17:32;;;;;;;6.57;3.97;;;10.40;97.50;;;;;;5050848;28;20103;-73
2022/05/31 05:19:58;;;;;;;7.30;4.32;;;10.40;96.90;;;;;;5069188;28;20032;-72
2022/05/31 05:22:23;;;;;;;8.52;5.13;;;10.50;97.00;;;;;;5068338;28;20082;-73
2022/05/31 05:24:49;;;;;;;10.93;5.40;;;10.50;97.10;;;;;;5068334;28;20037;-73
2022/05/31 05:27:15;;;;;;;8.88;5.22;;;10.50;97.50;;;;;;5049876;28;20033;-72
2022/05/31 05:32:25;;;;;;;8.70;4.47;;;10.30;98.30;;;;;;5067787;28;20036;-75
2022/05/31 05:34:55;;;;;;;5.88;3.90;;;10.30;98.70;;;;;;5047779;28;20041;-76
2022/05/31 05:37:23;;;;;;;6.68;3.85;;;10.20;99.10;;;;;;5047358;28;20037;-78
2022/05/31 05:39:49;;;;;;;6.90;2.88;;;10.20;99.40;;;;;;5047845;28;20060;-83
2022/05/31 05:42:16;;;;;;;5.68;2.60;;;10.10;99.20;;;;;;5050701;28;20037;-90
2022/05/31 05:44:42;;;;;;;6.18;3.22;;;10.10;99.70;;;;;;5048654;28;20072;-82
2022/05/31 05:47:09;;;;;;;5.20;2.35;;;10.10;99.80;;;;;;5049562;28;20037;-80
2022/05/31 05:49:36;;;;;;;6.00;2.88;;;10.00;99.90;;;;;;5049501;28;20067;-78
2022/05/31 05:52:06;;;;;;;7.32;2.80;;;10.00;99.90;;;;;;5049220;28;20032;-77
2022/05/31 05:54:32;;;;;;;6.55;3.90;;;9.90;99.90;;;;;;5047385;28;20037;-76
2022/05/31 05:56:58;;;;;;;5.80;3.25;;;9.80;99.90;;;;;;5048710;28;20035;-77
2022/05/31 05:59:23;;;;;;;6.55;3.35;;;9.80;99.90;;;;;;5047195;28;20029;-76
2022/05/31 06:01:58;;;;;;;6.53;3.95;;;9.80;99.90;;;;;;5033234;28;20514;-77
2022/05/31 06:04:33;;;;;;;6.00;3.53;;;9.70;99.90;;;;;;5028590;28;20038;-76
2022/05/31 06:07:15;;;;;;;5.13;3.55;;;9.70;99.90;;;;;;5010382;28;20120;-77
2022/05/31 06:09:54;;;;;;;6.53;2.65;;;9.70;99.90;;;;;;5010293;28;20042;-76
2022/05/31 06:12:24;;;;;;;5.85;3.00;;;9.60;99.90;;;;;;5028523;28;20095;-78
2022/05/31 06:14:57;;;;;;;6.63;4.32;;;9.60;99.90;;;;;;5026921;28;20037;-77
2022/05/31 06:17:31;;;;;;;6.53;4.03;;;9.60;99.90;;;;;;5028325;28;20495;-79
2022/05/31 06:20:00;;;;;;;4.72;3.10;;;9.60;99.90;;;;;;5042087;28;20029;-78
2022/05/31 06:22:26;;;;;;;6.57;4.63;;;9.60;99.90;;;;;;5050925;28;20118;-76
2022/05/31 06:24:51;;;;;;;6.68;3.38;;;9.60;99.90;;;;;;5051370;28;20091;-76
2022/05/31 06:27:17;;;;;;;6.63;3.60;;;9.60;99.90;;;;;;5051786;28;20651;-76
2022/05/31 06:29:43;;;;;;;5.47;3.40;;;9.60;99.90;;;;;;5052022;28;20029;-78
2022/05/31 06:32:08;;;;;;;4.53;2.90;;;9.60;99.90;;;;;;5051369;28;20032;-78
2022/05/31 06:34:36;;;;;;;4.20;3.13;;;9.50;99.90;;;;;;5051187;28;20041;-78
2022/05/31 06:37:05;;;;;;;6.68;4.07;;;9.50;99.90;;;;;;5051219;28;20072;-77
2022/05/31 06:39:30;;;;;;;5.75;3.67;;;9.50;99.90;;;;;;5032921;28;20064;-79
2022/05/31 06:41:56;;;;;;;6.28;3.88;;;9.50;99.90;;;;;;5051292;28;20143;-78
2022/05/31 06:44:21;;;;;;;7.47;4.07;;;9.50;99.90;;;;;;5033007;28;20033;-78
2022/05/31 06:46:47;;;;;;;9.77;4.68;;;9.50;99.90;;;;;;5032762;28;20063;-78
2022/05/31 06:49:13;;;;;;;6.20;3.13;;;9.60;99.90;;;;;;5051280;28;20040;-77
2022/05/31 06:57:06;;;;;;;4.85;3.28;;;9.50;99.90;;;;;;5050982;28;20039;-76
2022/05/31 06:59:32;;;;;;;4.80;3.30;;;9.60;99.90;;;;;;5050807;28;20028;-77
2022/05/31 07:02:03;;;;;;;4.97;3.38;;;9.60;99.90;;;;;;5050844;28;20025;-78
2022/05/31 07:04:36;;;;;;;6.60;3.60;;;9.60;99.90;;;;;;5051067;28;20029;-77
2022/05/31 07:07:03;;;;;;;5.53;3.80;;;9.70;99.90;;;;;;5050916;28;20097;-77
2022/05/31 07:09:29;;;;;;;5.75;3.70;;;9.70;99.90;;;;;;5032527;28;20111;-76
2022/05/31 07:11:56;;;;;;;5.18;3.63;;;9.80;99.90;;;;;;5050614;28;20439;-77
2022/05/31 07:14:26;;;;;;;7.97;4.40;;;9.80;99.90;;;;;;5050537;28;20041;-77
2022/05/31 07:16:51;;;;;;;5.88;3.47;;;9.90;99.90;;;;;;5050922;28;20036;-77
2022/05/31 07:19:17;;;;;;;6.10;4.00;;;10.00;99.90;;;;;;5051186;28;20523;-76
2022/05/31 07:21:43;;;;;;;5.95;3.83;;;10.10;99.90;;;;;;5035437;28;20131;-76
2022/05/31 07:24:09;;;;;;;5.60;3.60;;;10.20;99.90;;;;;;5034257;28;20063;-77
2022/05/31 07:26:35;;;;;;;6.10;3.63;;;10.30;99.90;;;;;;5050326;28;20061;-77
2022/05/31 07:29:01;;;;;;;6.28;4.20;;;10.40;99.90;;;;;;5050257;28;20478;-76
2022/05/31 07:31:26;;;;;;;6.28;4.40;;;10.60;99.90;;;;;;5050179;28;20455;-76
2022/05/31 07:33:52;;;;;;;6.18;2.90;;;10.70;99.90;;;;;;5049031;28;20135;-76
2022/05/31 07:36:19;;;;;;;5.18;2.85;;;10.80;99.90;;;;;;5049814;28;20040;-76
2022/05/31 07:38:45;;;;;;;4.80;2.67;;;10.80;99.90;;;;;;5049735;28;20039;-77
2022/05/31 07:41:11;;;;;;;4.97;2.80;;;10.90;99.90;;;;;;5032161;28;20065;-75
2022/05/31 07:43:36;;;;;;;5.68;2.90;;;10.90;99.90;;;;;;5049214;28;20056;-76
2022/05/31 07:46:10;;;;;;;4.32;2.30;;;11.00;99.90;;;;;;5049854;28;20037;-76
2022/05/31 07:48:37;;;;;;;5.78;3.13;;;11.00;99.90;;;;;;5049957;28;20395;-76
2022/05/31 07:51:05;;;;;;;5.00;2.58;;;11.00;99.90;;;;;;5049909;28;20037;-75
2022/05/31 07:53:32;;;;;;;5.90;2.88;;;11.10;99.90;;;;;;5048288;28;20072;-75
2022/05/31 07:56:07;;;;;;;7.68;3.40;;;11.20;99.90;;;;;;5050011;28;20025;-76
2022/05/31 07:58:34;;;;;;;7.03;3.72;;;11.40;99.90;;;;;;5049840;28;20881;-76
2022/05/31 08:01:08;;;;;;;6.22;3.20;;;11.70;99.90;;;;;;5048181;28;20033;-75
2022/05/31 08:03:35;;;;;;;4.60;2.55;;;11.90;99.90;;;;;;5048117;28;20087;-76
2022/05/31 08:06:03;;;;;;;5.72;2.90;;;12.10;99.90;;;;;;5047787;28;20028;-76
2022/05/31 08:08:29;;;;;;;5.85;2.45;;;12.30;99.90;;;;;;5049684;28;20032;-76
2022/05/31 08:10:55;;;;;;;8.73;2.33;;;12.50;99.90;;;;;;5048094;28;20025;-75
2022/05/31 08:13:20;;;;;;;5.25;1.60;;;12.80;99.90;;;;;;5049099;28;20127;-77
2022/05/31 08:15:46;;;;;;;5.53;1.80;;;13.00;99.80;;;;;;5049374;28;20044;-75
2022/05/31 08:18:12;;;;;;;5.43;1.58;;;13.00;98.80;;;;;;5048092;28;20036;-75
2022/05/31 08:20:39;;;;;;;5.43;1.77;;;13.00;99.50;;;;;;5048730;28;20467;-76
2022/05/31 08:23:05;;;;;;;7.30;2.00;;;13.20;98.50;;;;;;5049404;28;20033;-76
2022/05/31 08:25:33;;;;;;;4.75;1.63;;;13.30;99.40;;;;;;5049016;28;20117;-75
2022/05/31 08:28:00;;;;;;;3.88;1.73;;;13.50;97.80;;;;;;5049057;28;20052;-76
2022/05/31 08:30:26;;;;;;;6.00;1.80;;;13.70;97.20;;;;;;5051375;28;20029;-75
2022/05/31 08:32:52;;;;;;;5.70;1.80;;;13.80;96.20;;;;;;5049243;28;20440;-74
2022/05/31 08:35:19;;;;;;;4.88;1.70;;;14.00;96.80;;;;;;5047394;28;20025;-75
2022/05/31 08:37:44;;;;;;;8.07;2.03;;;14.10;95.70;;;;;;5049254;28;20025;-76
2022/05/31 08:40:11;;;;;;;3.00;1.40;;;14.10;95.90;;;;;;5048566;28;20053;-75
2022/05/31 08:42:43;;;;;;;5.97;1.50;;;14.10;96.00;;;;;;5048839;28;20074;-73
2022/05/31 08:45:59;;;;;;;3.47;1.30;;;14.20;94.10;;;;;;5021048;28;20120;-75
2022/05/31 08:48:35;;;;;;;4.43;1.58;;;14.10;94.20;;;;;;5010430;28;20048;-74
2022/05/31 08:56:56;;;;;;;5.22;1.52;;;13.90;93.90;;;;;;5028904;28;20083;-75
2022/05/31 08:59:43;;;;;;;5.43;1.80;;;13.80;94.10;;;;;;5028592;28;20061;-76
2022/05/31 09:02:24;;;;;;;4.60;1.70;;;13.70;93.00;;;;;;5028670;28;20040;-76
2022/05/31 09:05:09;;;;;;;3.95;1.88;;;13.40;94.40;;;;;;5028567;28;20513;-75
2022/05/31 09:07:47;;;;;;;6.35;2.33;;;13.30;95.30;;;;;;5010761;28;20037;-79
2022/05/31 09:10:26;;;;;;;4.90;2.40;;;13.10;96.00;;;;;;5010603;28;20029;-74
2022/05/31 09:12:54;;;;;;;5.55;2.30;;;12.90;95.70;;;;;;5010982;28;20479;-77
2022/05/31 09:15:36;;;;;;;7.88;3.15;;;12.60;96.30;;;;;;5010991;28;20068;-77
2022/05/31 09:18:12;;;;;;;6.43;3.22;;;12.40;97.90;;;;;;5028610;28;20105;-77
2022/05/31 09:20:47;;;;;;;5.00;2.58;;;12.40;98.30;;;;;;5028879;28;20033;-78
2022/05/31 09:23:18;;;;;;;5.25;2.30;;;12.40;97.70;;;;;;5028361;28;20053;-77
2022/05/31 09:25:45;;;;;;;8.23;2.25;;;12.50;96.70;;;;;;5010652;28;20710;-76
2022/05/31 09:28:35;;;;;;;4.88;1.90;;;12.60;96.90;;;;;;5010525;28;20036;-77
2022/05/31 09:31:07;;;;;;;3.03;1.77;;;12.80;95.70;;;;;;5010803;28;20128;-76
2022/05/31 09:33:37;;;;;;;3.97;1.80;;;12.90;93.40;;;;;;5028092;28;20045;-76
2022/05/31 09:36:43;;;;;;;4.78;2.13;;;13.00;92.80;;;;;;5031529;28;20025;-76
2022/05/31 09:39:19;;;;;;;4.75;2.10;;;13.00;94.70;;;;;;4985668;28;20077;-77
2022/05/31 09:41:52;;;;;;;6.50;2.13;;;12.90;94.90;;;;;;4986067;28;20042;-75
2022/05/31 09:44:23;;;;;;;6.13;2.17;;;13.00;94.00;;;;;;4970132;28;20077;-75
2022/05/31 09:47:18;;;;;;;4.85;2.22;;;13.00;94.90;;;;;;4986223;28;20034;-75
2022/05/31 09:49:46;;;;;;;7.57;2.05;;;13.20;95.40;;;;;;4986168;28;20052;-78
2022/05/31 09:52:20;;;;;;;5.00;1.60;;;13.70;94.30;;;;;;4986558;28;20046;-75
2022/05/31 09:57:57;;;;;;;3.90;1.83;;;14.40;92.40;;;;;;4989837;28;20515;-74
2022/05/31 10:00:23;;;;;;;7.07;1.80;;;14.40;92.20;;;;;;4989935;28;20201;-75
2022/05/31 10:02:58;;;;;;;4.25;1.80;;;14.30;92.40;;;;;;4989634;28;20512;-79
2022/05/31 10:05:23;;;;;;;5.07;2.00;;;14.00;91.00;;;;;;4989909;28;20046;-76
2022/05/31 10:07:49;;;;;;;3.30;1.58;;;13.80;92.90;;;;;;4973250;28;20045;-76
2022/05/31 10:10:15;;;;;;;4.80;1.80;;;13.60;93.30;;;;;;4989580;28;20034;-75
2022/05/31 10:12:54;;;;;;;3.90;1.73;;;13.40;93.70;;;;;;4989389;28;20046;-75
2022/05/31 10:15:44;;;;;;;3.03;1.60;;;13.20;94.80;;;;;;5007165;28;20042;-75
2022/05/31 10:18:25;;;;;;;7.28;2.10;;;13.00;95.50;;;;;;5051957;28;20779;-75
2022/05/31 10:21:04;;;;;;;3.80;1.80;;;12.90;95.60;;;;;;5050141;28;20143;-75
2022/05/31 10:23:43;;;;;;;7.57;2.10;;;12.90;96.10;;;;;;5050119;28;20036;-75
2022/05/31 10:26:27;;;;;;;5.07;2.30;;;12.90;96.00;;;;;;5050359;28;20106;-74
2022/05/31 10:28:58;;;;;;;4.35;2.10;;;12.90;96.20;;;;;;5051424;28;20036;-75
2022/05/31 10:31:56;;;;;;;4.32;2.50;;;12.90;96.30;;;;;;5051024;28;20033;-74
2022/05/31 10:34:25;;;;;;;4.40;2.30;;;12.90;96.40;;;;;;5017364;28;20060;-75
2022/05/31 10:36:56;;;;;;;4.68;2.33;;;12.90;95.60;;;;;;5053659;28;20121;-74
2022/05/31 10:39:25;;;;;;;4.45;2.60;;;12.90;95.80;;;;;;5050763;28;20061;-76
2022/05/31 10:41:54;;;;;;;5.15;2.70;;;13.00;96.40;;;;;;5050977;28;20029;-75
2022/05/31 10:44:35;;;;;;;5.45;2.20;;;13.10;96.00;;;;;;5050898;28;20041;-74
2022/05/31 10:47:01;;;;;;;4.47;2.00;;;13.20;96.00;;;;;;5051127;28;20045;-74
2022/05/31 10:49:27;;;;;;;5.22;1.90;;;13.60;95.00;;;;;;5032991;28;20029;-74
2022/05/31 10:52:12;;;;;;;3.67;1.67;;;14.20;91.00;;;;;;5050676;28;20021;-75
2022/05/31 10:55:07;;;;;;;4.30;1.70;;;15.00;92.60;;;;;;5018802;28;20131;-73
2022/05/31 10:57:51;;;;;;;4.97;1.90;;;15.40;84.10;;;;;;5051253;28;20086;-76
2022/05/31 11:00:29;;;;;;;3.83;1.70;;;15.40;78.80;;;;;;5050609;28;20029;-76
2022/05/31 11:03:17;;;;;;;4.10;1.65;;;15.20;79.10;;;;;;5032667;28;20596;-75
2022/05/31 11:05:57;;;;;;;2.05;1.45;;;15.00;83.50;;;;;;5050746;28;20120;-75
2022/05/31 11:11:47;;;;;;;4.93;1.70;;;14.60;85.60;;;;;;5050546;28;20036;-75
2022/05/31 11:14:22;;;;;;;3.72;1.40;;;15.40;85.20;;;;;;5050056;28;20041;-74
2022/05/31 11:17:10;;;;;;;4.82;1.40;;;16.00;82.50;;;;;;5032487;28;20111;-75
2022/05/31 11:19:48;;;;;;;2.72;1.35;;;16.10;77.70;;;;;;5050188;28;20051;-77
2022/05/31 11:22:47;;;;;;;4.25;1.48;;;16.00;77.20;;;;;;5050442;28;20059;-74
2022/05/31 11:25:42;;;;;;;3.97;1.42;;;15.90;80.60;;;;;;5050400;28;20073;-75
2022/05/31 11:28:08;;;;;;;4.10;1.30;;;16.80;82.60;;;;;;5050234;28;20519;-74
2022/05/31 11:30:50;;;;;;;2.30;1.30;;;16.90;78.50;;;;;;5049440;28;20082;-75
2022/05/31 11:33:31;;;;;;;3.92;1.10;;;16.70;73.40;;;;;;5049752;28;20476;-76
2022/05/31 11:36:18;;;;;;;3.58;1.10;;;16.30;73.30;;;;;;5050061;28;20061;-74
2022/05/31 11:39:04;;;;;;;4.38;1.30;;;15.80;72.30;;;;;;5048616;28;20037;-73
2022/05/31 11:41:53;;;;;;;2.88;1.13;;;15.50;76.10;;;;;;5049097;28;20116;-73
2022/05/31 11:44:43;;;;;;;2.75;1.17;;;15.30;78.10;;;;;;5050329;28;20032;-75
2022/05/31 11:47:35;;;;;;;4.53;1.50;;;15.10;77.80;;;;;;5048916;28;20043;-73
2022/05/31 11:50:03;;;;;;;2.58;1.20;;;14.90;78.90;;;;;;4988010;28;20034;-74
2022/05/31 11:52:46;;;;;;;4.28;1.35;;;14.70;78.40;;;;;;4988102;28;20053;-76
2022/05/31 11:55:28;;;;;;;2.72;1.30;;;14.60;80.00;;;;;;4988104;28;20109;-74
2022/05/31 11:58:14;;;;;;;4.90;1.20;;;14.50;83.90;;;;;;4988795;28;20030;-76
2022/05/31 12:00:54;;;;;;;4.22;1.30;;;14.40;82.10;;;;;;4990493;28;20042;-78
2022/05/31 12:03:31;;;;;;;3.85;1.33;;;14.30;79.70;;;;;;4990895;28;20031;-74
2022/05/31 12:06:43;;;;;;;6.32;1.95;;;14.30;81.00;;;;;;4988336;28;20457;-76
2022/05/31 12:09:58;;;;;;;3.05;1.13;;;14.60;82.20;;;;;;4981107;28;20057;-73
2022/05/31 12:12:31;;;;;;;3.40;1.27;;;14.90;81.50;;;;;;4929405;29;20119;-77
2022/05/31 12:15:14;;;;;;;4.05;1.30;;;15.20;79.30;;;;;;4929540;29;20073;-74
2022/05/31 12:18:07;;;;;;;4.50;1.48;;;15.50;80.90;;;;;;4929754;29;20040;-75
2022/05/31 12:20:53;;;;;;;3.75;1.02;;;15.70;80.20;;;;;;4929109;29;20039;-76
2022/05/31 12:23:24;;;;;;;4.85;1.30;;;15.90;77.50;;;;;;4929529;29;20047;-79
2022/05/31 12:25:54;;;;;;;2.65;0.90;;;16.00;75.60;;;;;;4929672;29;20035;-74
2022/05/31 12:28:22;;;;;;;4.45;1.02;;;16.00;73.50;;;;;;4990144;28;20034;-75
2022/05/31 12:31:05;;;;;;;1.42;0.73;;;15.90;72.50;;;;;;4990030;28;20100;-75
2022/05/31 12:33:43;;;;;;;4.05;0.82;;;15.70;72.30;;;;;;4988905;28;20038;-75
2022/05/31 12:36:20;;;;;;;2.72;1.00;;;15.50;74.10;;;;;;4987498;28;20213;-74
2022/05/31 12:39:19;;;;;;;3.47;1.00;;;15.20;76.80;;;;;;4986802;28;20064;-72
2022/05/31 12:41:46;;;;;;;2.92;1.00;;;15.00;81.00;;;;;;4986970;28;20030;-79
2022/05/31 12:44:48;;;;;;;6.05;1.02;;;14.90;82.20;;;;;;5048914;28;20115;-74
2022/05/31 12:47:29;;;;;;;5.22;1.00;;;14.80;85.70;;;;;;4986521;28;20081;-73
2022/05/31 12:50:02;;;;;;;5.90;1.33;;;14.90;82.60;;;;;;4970389;28;20493;-74
2022/05/31 12:55:22;;;;;;;3.42;1.02;;;15.30;80.10;;;;;;4986463;28;20104;-73
2022/05/31 12:58:26;;;;;;;3.78;1.10;;;15.80;79.30;;;;;;4986509;28;20030;-72
2022/05/31 13:01:13;;;;;;;3.55;0.88;;;16.00;77.90;;;;;;4978503;28;20602;-73
2022/05/31 13:03:50;;;;;;;4.53;1.00;;;15.80;78.30;;;;;;4976681;28;20117;-75
2022/05/31 13:06:21;;;;;;;3.75;1.10;;;15.50;77.60;;;;;;4986573;28;20026;-72
2022/05/31 13:08:55;;;;;;;4.20;0.98;;;15.30;81.60;;;;;;4986235;28;20070;-74
2022/05/31 13:20:39;;;;;;;4.05;1.05;;;15.50;81.60;;;;;;4987736;28;20085;-74
2022/05/31 13:23:14;;;;;;;4.55;1.10;;;15.80;81.60;;;;;;5030454;28;20033;-77
2022/05/31 13:25:48;;;;;;;3.35;1.02;;;16.10;77.60;;;;;;5048040;28;20063;-73
2022/05/31 13:28:29;;;;;;;3.00;0.80;;;16.10;79.50;;;;;;5048183;28;20395;-72
2022/05/31 13:31:01;;;;;;;4.95;1.10;;;16.00;76.80;;;;;;5049035;28;20068;-73
2022/05/31 13:33:28;;;;;;;4.25;1.20;;;15.90;77.80;;;;;;5034402;28;20143;-73
2022/05/31 13:36:02;;;;;;;3.72;1.00;;;15.80;80.30;;;;;;5045160;28;20132;-75
2022/05/31 13:38:35;;;;;;;6.75;1.10;;;15.70;77.20;;;;;;5052707;28;20033;-77
2022/05/31 13:41:03;;;;;;;3.17;1.20;;;15.70;77.20;;;;;;5052238;28;20053;-74
2022/05/31 13:43:36;;;;;;;7.38;1.55;;;15.50;78.40;;;;;;5052042;28;20029;-73
2022/05/31 13:46:30;;;;;;;4.90;1.00;;;15.40;80.90;;;;;;5052104;28;20063;-74